Dole Colombia — C6QZ5 — position and weather

sailwx.info

Track history (hours):
 
Tides and Currents Weather Stations Pressure Air Temp Water Temp Dewpoint Dewpoint Depression Visibility Wind Speed Wind Dir Waves Ship Positions

Dole Colombia

Last reported at 2014-Jul-22 10:33 UTC. Time now 2014-Jul-31 07:28 UTC.
Position N 38°14' W 074°33'.
Warning: this ship's position is 8 days out of date.

Length 205 m; draft 8 m.

Type: Ship. MMSI: 309403000.

Date/timePositionNaut miles runAvg speedWind from/ knotsBaromVisibWave heightAir tempDewpointWater temp
2014-Jul-22 10:33N 38°14' W 074°33'2 2.2
2014-Jul-22 09:33N 38°16' W 074°34'1616.2
2014-Jul-22 08:33N 38°29' W 074°46'1616.2
2014-Jul-22 07:33N 38°43' W 074°58'1313.2
2014-Jul-22 06:33N 38°54' W 075°06'3315.3
2014-Jul-22 04:24N 39°22' W 075°28'1214.0
2014-Jul-22 03:33N 39°34' W 075°33'  
2014-Jul-18 22:33N 26°59' W 079°45'2323.2
2014-Jul-18 21:33N 26°36' W 079°50'2322.8
2014-Jul-18 20:33N 26°15' W 079°59'1212.2
2014-Jul-18 19:33N 26°05' W 080°07'0 0.1
2014-Jul-18 18:27N 26°05' W 080°07'0 0.0
2014-Jul-18 17:27N 26°05' W 080°07'0 0.0
2014-Jul-18 16:30N 26°05' W 080°07'0 0.0
2014-Jul-18 15:30N 26°05' W 080°07'0 0.0
2014-Jul-18 14:30N 26°05' W 080°07'1 0.8
2014-Jul-18 13:33N 26°05' W 080°07'9 8.6
2014-Jul-18 12:33N 25°58' W 080°03'2221.6
2014-Jul-18 11:33N 25°36' W 079°59'  
Track history (hours):
 
Tides and Currents Weather Stations Pressure Air Temp Water Temp Dewpoint Dewpoint Depression Visibility Wind Speed Wind Dir Waves Ship Positions

Dole Colombia

Last reported at 2014-Jul-22 10:33 UTC. Time now 2014-Jul-31 07:28 UTC.
Position N 38°14' W 074°33'.
Warning: this ship's position is 8 days out of date.

Length 205 m; draft 8 m.

Type: Ship. MMSI: 309403000.

Date/timePositionNaut miles runAvg speedWind from/ knotsBaromVisibWave heightAir tempDewpointWater temp
2014-Jul-22 10:33N 38°14' W 074°33'2 2.2
2014-Jul-22 09:33N 38°16' W 074°34'1616.2
2014-Jul-22 08:33N 38°29' W 074°46'1616.2
2014-Jul-22 07:33N 38°43' W 074°58'1313.2
2014-Jul-22 06:33N 38°54' W 075°06'3315.3
2014-Jul-22 04:24N 39°22' W 075°28'1214.0
2014-Jul-22 03:33N 39°34' W 075°33'  
2014-Jul-18 22:33N 26°59' W 079°45'2323.2
2014-Jul-18 21:33N 26°36' W 079°50'2322.8
2014-Jul-18 20:33N 26°15' W 079°59'1212.2
2014-Jul-18 19:33N 26°05' W 080°07'0 0.1
2014-Jul-18 18:27N 26°05' W 080°07'0 0.0
2014-Jul-18 17:27N 26°05' W 080°07'0 0.0
2014-Jul-18 16:30N 26°05' W 080°07'0 0.0
2014-Jul-18 15:30N 26°05' W 080°07'0 0.0
2014-Jul-18 14:30N 26°05' W 080°07'1 0.8
2014-Jul-18 13:33N 26°05' W 080°07'9 8.6
2014-Jul-18 12:33N 25°58' W 080°03'2221.6
2014-Jul-18 11:33N 25°36' W 079°59'  

Dump ship's entire track history